Nichols, Florida
Current Conditions -  °F | °C
As of 7:56 PM on Monday 20 Oct 2014 (Local Time) from KLAL Reporting Station
Broken Clouds Broken Clouds  
Wind Chill: 75°   Ceiling: 25000
Heat Index: 75°   Visibility: 10mi
Dew Point: 66°   Wind: 0mph
Humidity: 73%   Direction: NA
Pressure: 29.97"   Gusts: NA
Location:  27.89°N, 82.03°W
Report Text: KLAL 202356Z 00000KT 10SM FEW055 BKN250 24/19 A2997
Loading
Personal Weather Stations






























Interactive Weather Map
Tropical Storm Tracking
New forecast layout! Learn more

10-Day Weather Forecast

Advertisements
Track Severe Weather on mobile